sensor_id;sensor_type;location;lat;lon;timestamp;pressure;altitude;pressure_sealevel;temperature;humidity
69198;BME280;56311;50.298;8.514;2022-12-18T00:01:58;98968.97;;;-11.73;100.00
69198;BME280;56311;50.298;8.514;2022-12-18T00:04:29;98967.88;;;-11.82;100.00
69198;BME280;56311;50.298;8.514;2022-12-18T00:06:56;98972.16;;;-11.81;100.00
69198;BME280;56311;50.298;8.514;2022-12-18T00:09:23;98974.44;;;-11.76;100.00
69198;BME280;56311;50.298;8.514;2022-12-18T00:11:56;98970.91;;;-11.64;100.00
69198;BME280;56311;50.298;8.514;2022-12-18T00:14:23;98967.47;;;-11.64;100.00
69198;BME280;56311;50.298;8.514;2022-12-18T00:16:50;98971.88;;;-11.54;100.00
69198;BME280;56311;50.298;8.514;2022-12-18T00:19:18;98970.69;;;-11.61;100.00
69198;BME280;56311;50.298;8.514;2022-12-18T00:21:45;98970.91;;;-11.64;100.00
69198;BME280;56311;50.298;8.514;2022-12-18T00:24:12;98961.63;;;-11.68;100.00
69198;BME280;56311;50.298;8.514;2022-12-18T00:26:41;98965.41;;;-11.72;100.00
69198;BME280;56311;50.298;8.514;2022-12-18T00:29:11;98959.59;;;-11.76;100.00
69198;BME280;56311;50.298;8.514;2022-12-18T00:31:42;98962.69;;;-11.71;100.00
69198;BME280;56311;50.298;8.514;2022-12-18T00:34:10;98968.84;;;-11.83;100.00
69198;BME280;56311;50.298;8.514;2022-12-18T00:36:42;98959.94;;;-11.80;100.00
69198;BME280;56311;50.298;8.514;2022-12-18T00:39:10;98960.03;;;-11.93;100.00
69198;BME280;56311;50.298;8.514;2022-12-18T00:41:37;98961.47;;;-11.89;100.00
69198;BME280;56311;50.298;8.514;2022-12-18T00:44:22;98963.28;;;-11.78;100.00
69198;BME280;56311;50.298;8.514;2022-12-18T00:46:49;98965.28;;;-11.71;100.00
69198;BME280;56311;50.298;8.514;2022-12-18T00:49:17;98973.84;;;-11.80;100.00
69198;BME280;56311;50.298;8.514;2022-12-18T00:51:46;98978.72;;;-11.75;100.00
69198;BME280;56311;50.298;8.514;2022-12-18T00:54:14;98981.31;;;-11.75;100.00
69198;BME280;56311;50.298;8.514;2022-12-18T00:56:40;98982.53;;;-11.68;100.00
69198;BME280;56311;50.298;8.514;2022-12-18T00:59:16;98981.66;;;-11.80;100.00
69198;BME280;56311;50.298;8.514;2022-12-18T01:01:43;98983.81;;;-11.74;100.00
69198;BME280;56311;50.298;8.514;2022-12-18T01:04:11;98981.09;;;-11.72;100.00
69198;BME280;56311;50.298;8.514;2022-12-18T01:06:38;98976.53;;;-11.81;100.00
69198;BME280;56311;50.298;8.514;2022-12-18T01:09:06;98970.03;;;-7.26;100.00
69198;BME280;56311;50.298;8.514;2022-12-18T01:11:33;98973.25;;;-7.52;100.00
69198;BME280;56311;50.298;8.514;2022-12-18T01:14:00;98990.91;;;-9.44;100.00
69198;BME280;56311;50.298;8.514;2022-12-18T01:16:27;98990.06;;;-10.08;100.00
69198;BME280;56311;50.298;8.514;2022-12-18T01:18:54;98987.88;;;-10.67;100.00
69198;BME280;56311;50.298;8.514;2022-12-18T01:21:23;98992.31;;;-10.91;100.00
69198;BME280;56311;50.298;8.514;2022-12-18T01:23:54;98999.44;;;-11.27;100.00
69198;BME280;56311;50.298;8.514;2022-12-18T01:26:24;99007.97;;;-11.47;100.00
69198;BME280;56311;50.298;8.514;2022-12-18T01:28:51;98995.38;;;-11.54;100.00
69198;BME280;56311;50.298;8.514;2022-12-18T01:31:22;99015.28;;;-11.64;100.00
69198;BME280;56311;50.298;8.514;2022-12-18T01:33:49;99028.06;;;-11.72;100.00
69198;BME280;56311;50.298;8.514;2022-12-18T01:36:18;99017.63;;;-11.72;100.00
69198;BME280;56311;50.298;8.514;2022-12-18T01:38:46;99021.88;;;-11.82;100.00
69198;BME280;56311;50.298;8.514;2022-12-18T01:41:14;99009.78;;;-11.84;100.00
69198;BME280;56311;50.298;8.514;2022-12-18T01:43:44;99008.47;;;-11.78;100.00
69198;BME280;56311;50.298;8.514;2022-12-18T01:46:11;99008.72;;;-11.81;100.00
69198;BME280;56311;50.298;8.514;2022-12-18T01:48:38;98988.19;;;-11.74;100.00
69198;BME280;56311;50.298;8.514;2022-12-18T01:51:08;98986.16;;;-11.82;100.00
69198;BME280;56311;50.298;8.514;2022-12-18T01:53:36;98989.50;;;-11.80;100.00
69198;BME280;56311;50.298;8.514;2022-12-18T01:56:04;98990.28;;;-11.91;100.00
69198;BME280;56311;50.298;8.514;2022-12-18T01:58:37;98995.00;;;-11.96;100.00
69198;BME280;56311;50.298;8.514;2022-12-18T02:01:08;98995.28;;;-11.99;100.00
69198;BME280;56311;50.298;8.514;2022-12-18T02:03:36;98988.00;;;-12.07;100.00
69198;BME280;56311;50.298;8.514;2022-12-18T02:06:09;98987.78;;;-12.04;100.00
69198;BME280;56311;50.298;8.514;2022-12-18T02:08:38;98986.38;;;-12.08;100.00
69198;BME280;56311;50.298;8.514;2022-12-18T02:11:12;98986.25;;;-12.06;100.00
69198;BME280;56311;50.298;8.514;2022-12-18T02:13:43;98984.84;;;-11.99;100.00
69198;BME280;56311;50.298;8.514;2022-12-18T02:16:19;98987.91;;;-12.05;100.00
69198;BME280;56311;50.298;8.514;2022-12-18T02:18:51;98978.41;;;-12.06;100.00
69198;BME280;56311;50.298;8.514;2022-12-18T02:21:27;98981.47;;;-12.12;100.00
69198;BME280;56311;50.298;8.514;2022-12-18T02:24:13;98983.81;;;-12.21;100.00
69198;BME280;56311;50.298;8.514;2022-12-18T02:26:47;98973.38;;;-12.21;100.00
69198;BME280;56311;50.298;8.514;2022-12-18T02:29:17;98973.09;;;-12.29;100.00
69198;BME280;56311;50.298;8.514;2022-12-18T02:31:50;98976.88;;;-12.33;100.00
69198;BME280;56311;50.298;8.514;2022-12-18T02:34:19;98978.66;;;-12.34;100.00
69198;BME280;56311;50.298;8.514;2022-12-18T02:36:48;98977.81;;;-12.34;100.00
69198;BME280;56311;50.298;8.514;2022-12-18T02:39:16;98984.13;;;-12.25;100.00
69198;BME280;56311;50.298;8.514;2022-12-18T02:41:46;98983.66;;;-12.30;100.00
69198;BME280;56311;50.298;8.514;2022-12-18T02:44:13;98983.66;;;-12.30;100.00
69198;BME280;56311;50.298;8.514;2022-12-18T02:46:42;98991.56;;;-12.32;100.00
69198;BME280;56311;50.298;8.514;2022-12-18T02:49:21;98983.16;;;-12.36;100.00
69198;BME280;56311;50.298;8.514;2022-12-18T02:51:52;98988.97;;;-12.32;100.00
69198;BME280;56311;50.298;8.514;2022-12-18T02:54:27;98976.38;;;-12.38;100.00
69198;BME280;56311;50.298;8.514;2022-12-18T02:57:05;98989.66;;;-12.41;100.00
69198;BME280;56311;50.298;8.514;2022-12-18T02:59:40;98980.59;;;-12.49;100.00
69198;BME280;56311;50.298;8.514;2022-12-18T03:02:17;98986.31;;;-12.43;100.00
69198;BME280;56311;50.298;8.514;2022-12-18T03:04:52;98997.69;;;-12.44;100.00
69198;BME280;56311;50.298;8.514;2022-12-18T03:07:38;98991.66;;;-12.45;100.00
69198;BME280;56311;50.298;8.514;2022-12-18T03:10:07;98990.91;;;-12.47;100.00
69198;BME280;56311;50.298;8.514;2022-12-18T03:12:39;98979.44;;;-12.44;100.00
69198;BME280;56311;50.298;8.514;2022-12-18T03:15:10;98979.13;;;-12.53;100.00
69198;BME280;56311;50.298;8.514;2022-12-18T03:17:46;98986.88;;;-12.51;100.00
69198;BME280;56311;50.298;8.514;2022-12-18T03:20:19;98980.38;;;-12.45;100.00
69198;BME280;56311;50.298;8.514;2022-12-18T03:22:51;98983.22;;;-12.49;100.00
69198;BME280;56311;50.298;8.514;2022-12-18T03:25:20;98981.41;;;-12.48;100.00
69198;BME280;56311;50.298;8.514;2022-12-18T03:27:53;98969.94;;;-12.45;100.00
69198;BME280;56311;50.298;8.514;2022-12-18T03:30:22;98971.69;;;-12.57;100.00
69198;BME280;56311;50.298;8.514;2022-12-18T03:32:53;98971.31;;;-12.53;100.00
69198;BME280;56311;50.298;8.514;2022-12-18T03:35:31;98971.22;;;-12.51;100.00
69198;BME280;56311;50.298;8.514;2022-12-18T03:38:00;98973.09;;;-12.53;100.00
69198;BME280;56311;50.298;8.514;2022-12-18T03:40:31;98967.56;;;-12.49;100.00
69198;BME280;56311;50.298;8.514;2022-12-18T03:43:07;98966.00;;;-12.51;100.00
69198;BME280;56311;50.298;8.514;2022-12-18T03:45:39;98965.28;;;-12.53;100.00
69198;BME280;56311;50.298;8.514;2022-12-18T03:48:15;98969.88;;;-12.57;100.00
69198;BME280;56311;50.298;8.514;2022-12-18T03:50:46;98967.94;;;-12.66;100.00
69198;BME280;56311;50.298;8.514;2022-12-18T03:53:25;98970.78;;;-12.69;100.00
69198;BME280;56311;50.298;8.514;2022-12-18T03:55:56;98974.19;;;-12.69;100.00
69198;BME280;56311;50.298;8.514;2022-12-18T03:58:25;98977.97;;;-12.73;100.00
69198;BME280;56311;50.298;8.514;2022-12-18T04:00:56;98987.78;;;-12.76;100.00
69198;BME280;56311;50.298;8.514;2022-12-18T04:03:24;98987.34;;;-12.70;100.00
69198;BME280;56311;50.298;8.514;2022-12-18T04:05:54;98978.31;;;-12.77;100.00
69198;BME280;56311;50.298;8.514;2022-12-18T04:08:22;98971.63;;;-12.82;100.00
69198;BME280;56311;50.298;8.514;2022-12-18T04:10:50;98969.63;;;-12.78;100.00
69198;BME280;56311;50.298;8.514;2022-12-18T04:13:21;98966.00;;;-12.75;100.00
69198;BME280;56311;50.298;8.514;2022-12-18T04:15:49;98974.03;;;-12.78;100.00
69198;BME280;56311;50.298;8.514;2022-12-18T04:18:16;98958.59;;;-12.82;100.00
69198;BME280;56311;50.298;8.514;2022-12-18T04:20:43;98968.09;;;-12.81;100.00
69198;BME280;56311;50.298;8.514;2022-12-18T04:23:09;98958.28;;;-12.77;100.00
69198;BME280;56311;50.298;8.514;2022-12-18T04:25:36;98960.78;;;-12.75;100.00
69198;BME280;56311;50.298;8.514;2022-12-18T04:28:03;98956.97;;;-12.83;100.00
69198;BME280;56311;50.298;8.514;2022-12-18T04:30:30;98960.06;;;-12.77;100.00
69198;BME280;56311;50.298;8.514;2022-12-18T04:32:58;98963.59;;;-12.78;100.00
69198;BME280;56311;50.298;8.514;2022-12-18T04:35:25;98960.19;;;-12.79;100.00
69198;BME280;56311;50.298;8.514;2022-12-18T04:37:51;98966.63;;;-12.72;100.00
69198;BME280;56311;50.298;8.514;2022-12-18T04:40:18;98960.19;;;-12.79;100.00
69198;BME280;56311;50.298;8.514;2022-12-18T04:42:45;98954.34;;;-12.83;100.00
69198;BME280;56311;50.298;8.514;2022-12-18T04:45:12;98949.22;;;-12.84;100.00
69198;BME280;56311;50.298;8.514;2022-12-18T04:47:38;98954.13;;;-12.80;100.00
69198;BME280;56311;50.298;8.514;2022-12-18T04:50:07;98951.63;;;-12.81;100.00
69198;BME280;56311;50.298;8.514;2022-12-18T04:52:34;98953.28;;;-12.80;100.00
69198;BME280;56311;50.298;8.514;2022-12-18T04:55:00;98948.91;;;-12.80;100.00
69198;BME280;56311;50.298;8.514;2022-12-18T04:57:27;98947.03;;;-12.77;100.00
69198;BME280;56311;50.298;8.514;2022-12-18T04:59:54;98940.91;;;-12.89;100.00
69198;BME280;56311;50.298;8.514;2022-12-18T05:02:21;98949.47;;;-12.87;100.00
69198;BME280;56311;50.298;8.514;2022-12-18T05:04:47;98949.13;;;-12.83;100.00
69198;BME280;56311;50.298;8.514;2022-12-18T05:07:15;98947.22;;;-12.81;100.00
69198;BME280;56311;50.298;8.514;2022-12-18T05:09:42;98956.50;;;-12.76;100.00
69198;BME280;56311;50.298;8.514;2022-12-18T05:12:10;98952.84;;;-12.74;100.00
69198;BME280;56311;50.298;8.514;2022-12-18T05:14:37;98960.34;;;-12.69;100.00
69198;BME280;56311;50.298;8.514;2022-12-18T05:17:03;98960.22;;;-12.68;100.00
69198;BME280;56311;50.298;8.514;2022-12-18T05:19:30;98962.06;;;-12.57;100.00
69198;BME280;56311;50.298;8.514;2022-12-18T05:21:57;98961.78;;;-12.41;100.00
69198;BME280;56311;50.298;8.514;2022-12-18T05:24:25;98971.88;;;-12.36;100.00
69198;BME280;56311;50.298;8.514;2022-12-18T05:26:52;98965.72;;;-12.35;100.00
69198;BME280;56311;50.298;8.514;2022-12-18T05:29:18;98967.16;;;-12.31;100.00
69198;BME280;56311;50.298;8.514;2022-12-18T05:31:45;98970.28;;;-12.26;100.00
69198;BME280;56311;50.298;8.514;2022-12-18T05:34:12;98964.78;;;-12.34;100.00
69198;BME280;56311;50.298;8.514;2022-12-18T05:36:39;98967.59;;;-12.37;100.00
69198;BME280;56311;50.298;8.514;2022-12-18T05:39:06;98962.88;;;-12.32;100.00
69198;BME280;56311;50.298;8.514;2022-12-18T05:41:34;98956.88;;;-12.21;100.00
69198;BME280;56311;50.298;8.514;2022-12-18T05:44:01;98957.06;;;-12.11;100.00
69198;BME280;56311;50.298;8.514;2022-12-18T05:46:28;98953.03;;;-12.04;100.00
69198;BME280;56311;50.298;8.514;2022-12-18T05:48:59;98950.53;;;-12.06;100.00
69198;BME280;56311;50.298;8.514;2022-12-18T05:51:26;98960.19;;;-11.72;100.00
69198;BME280;56311;50.298;8.514;2022-12-18T05:53:53;98959.38;;;-11.61;100.00
69198;BME280;56311;50.298;8.514;2022-12-18T05:56:21;98952.41;;;-11.49;100.00
69198;BME280;56311;50.298;8.514;2022-12-18T05:58:52;98944.31;;;-11.12;100.00
69198;BME280;56311;50.298;8.514;2022-12-18T06:01:22;98955.59;;;-10.45;100.00
69198;BME280;56311;50.298;8.514;2022-12-18T06:03:49;98947.41;;;-9.98;100.00
69198;BME280;56311;50.298;8.514;2022-12-18T06:06:18;98952.72;;;-10.21;100.00
69198;BME280;56311;50.298;8.514;2022-12-18T06:08:45;98959.34;;;-10.59;100.00
69198;BME280;56311;50.298;8.514;2022-12-18T06:11:12;98963.44;;;-10.89;100.00
69198;BME280;56311;50.298;8.514;2022-12-18T06:13:39;98965.69;;;-11.07;100.00
69198;BME280;56311;50.298;8.514;2022-12-18T06:16:08;98966.38;;;-10.06;100.00
69198;BME280;56311;50.298;8.514;2022-12-18T06:18:37;98965.47;;;-9.74;100.00
69198;BME280;56311;50.298;8.514;2022-12-18T06:21:05;98961.59;;;-9.80;100.00
69198;BME280;56311;50.298;8.514;2022-12-18T06:23:31;98951.28;;;-9.50;100.00
69198;BME280;56311;50.298;8.514;2022-12-18T06:26:05;98958.47;;;-8.81;100.00
69198;BME280;56311;50.298;8.514;2022-12-18T06:28:32;98952.44;;;-8.42;100.00
69198;BME280;56311;50.298;8.514;2022-12-18T06:30:58;98956.06;;;-8.04;100.00
69198;BME280;56311;50.298;8.514;2022-12-18T06:33:27;98953.81;;;-7.79;100.00
69198;BME280;56311;50.298;8.514;2022-12-18T06:35:59;98962.66;;;-7.70;100.00
69198;BME280;56311;50.298;8.514;2022-12-18T06:38:26;98959.19;;;-7.61;100.00
69198;BME280;56311;50.298;8.514;2022-12-18T06:40:53;98964.25;;;-7.49;100.00
69198;BME280;56311;50.298;8.514;2022-12-18T06:43:20;98966.91;;;-7.40;100.00
69198;BME280;56311;50.298;8.514;2022-12-18T06:45:46;98970.59;;;-7.32;100.00
69198;BME280;56311;50.298;8.514;2022-12-18T06:48:19;98972.16;;;-7.40;100.00
69198;BME280;56311;50.298;8.514;2022-12-18T06:50:47;98980.28;;;-7.33;100.00
69198;BME280;56311;50.298;8.514;2022-12-18T06:53:14;98989.97;;;-7.33;100.00
69198;BME280;56311;50.298;8.514;2022-12-18T06:55:41;98979.75;;;-7.37;100.00
69198;BME280;56311;50.298;8.514;2022-12-18T06:58:08;98985.84;;;-7.36;100.00
69198;BME280;56311;50.298;8.514;2022-12-18T07:00:36;98989.72;;;-7.40;100.00
69198;BME280;56311;50.298;8.514;2022-12-18T07:03:03;98989.72;;;-7.40;100.00
69198;BME280;56311;50.298;8.514;2022-12-18T07:05:30;98995.81;;;-7.40;100.00
69198;BME280;56311;50.298;8.514;2022-12-18T07:07:58;98993.88;;;-7.47;100.00
69198;BME280;56311;50.298;8.514;2022-12-18T07:10:25;98994.16;;;-7.41;100.00
69198;BME280;56311;50.298;8.514;2022-12-18T07:12:52;98999.53;;;-7.32;100.00
69198;BME280;56311;50.298;8.514;2022-12-18T07:15:19;98997.03;;;-7.34;100.00
69198;BME280;56311;50.298;8.514;2022-12-18T07:17:46;98993.69;;;-7.26;100.00
69198;BME280;56311;50.298;8.514;2022-12-18T07:20:13;98991.44;;;-7.11;100.00
69198;BME280;56311;50.298;8.514;2022-12-18T07:22:39;98989.91;;;-7.14;100.00
69198;BME280;56311;50.298;8.514;2022-12-18T07:25:08;98973.88;;;-7.11;100.00
69198;BME280;56311;50.298;8.514;2022-12-18T07:27:35;98983.38;;;-7.10;100.00
69198;BME280;56311;50.298;8.514;2022-12-18T07:30:02;98972.97;;;-7.01;100.00
69198;BME280;56311;50.298;8.514;2022-12-18T07:32:30;98971.31;;;-7.03;100.00
69198;BME280;56311;50.298;8.514;2022-12-18T07:34:56;98976.56;;;-7.03;100.00
69198;BME280;56311;50.298;8.514;2022-12-18T07:37:23;98979.63;;;-6.97;100.00
69198;BME280;56311;50.298;8.514;2022-12-18T07:39:50;98981.25;;;-6.86;100.00
69198;BME280;56311;50.298;8.514;2022-12-18T07:42:18;98982.53;;;-6.73;100.00
69198;BME280;56311;50.298;8.514;2022-12-18T07:44:57;98980.59;;;-6.70;100.00
69198;BME280;56311;50.298;8.514;2022-12-18T07:47:24;98977.47;;;-6.84;100.00
69198;BME280;56311;50.298;8.514;2022-12-18T07:49:51;98980.94;;;-6.83;100.00
69198;BME280;56311;50.298;8.514;2022-12-18T07:52:18;98975.22;;;-6.79;100.00
69198;BME280;56311;50.298;8.514;2022-12-18T07:54:51;98990.50;;;-6.82;100.00
69198;BME280;56311;50.298;8.514;2022-12-18T07:57:19;98982.88;;;-6.85;100.00
69198;BME280;56311;50.298;8.514;2022-12-18T08:00:07;98982.38;;;-6.99;100.00
69198;BME280;56311;50.298;8.514;2022-12-18T08:02:34;98974.25;;;-7.06;100.00
69198;BME280;56311;50.298;8.514;2022-12-18T08:05:01;98977.84;;;-7.07;100.00
69198;BME280;56311;50.298;8.514;2022-12-18T08:07:28;98982.00;;;-7.04;100.00
69198;BME280;56311;50.298;8.514;2022-12-18T08:09:54;98971.84;;;-6.99;100.00
69198;BME280;56311;50.298;8.514;2022-12-18T08:12:22;98976.41;;;-6.91;100.00
69198;BME280;56311;50.298;8.514;2022-12-18T08:14:49;98969.44;;;-6.82;100.00
69198;BME280;56311;50.298;8.514;2022-12-18T08:17:16;98968.41;;;-6.72;100.00
69198;BME280;56311;50.298;8.514;2022-12-18T08:19:43;98972.28;;;-6.66;100.00
69198;BME280;56311;50.298;8.514;2022-12-18T08:22:09;98969.84;;;-6.59;100.00
69198;BME280;56311;50.298;8.514;2022-12-18T08:24:36;98976.78;;;-6.58;100.00
69198;BME280;56311;50.298;8.514;2022-12-18T08:27:03;98971.63;;;-6.50;100.00
69198;BME280;56311;50.298;8.514;2022-12-18T08:29:51;98970.81;;;-6.50;100.00
69198;BME280;56311;50.298;8.514;2022-12-18T08:32:18;98963.72;;;-6.50;100.00
69198;BME280;56311;50.298;8.514;2022-12-18T08:34:45;98962.84;;;-6.41;100.00
69198;BME280;56311;50.298;8.514;2022-12-18T08:37:11;98964.88;;;-6.34;100.00
69198;BME280;56311;50.298;8.514;2022-12-18T08:39:38;98956.44;;;-6.20;100.00
69198;BME280;56311;50.298;8.514;2022-12-18T08:42:05;98947.56;;;-6.19;100.00
69198;BME280;56311;50.298;8.514;2022-12-18T08:44:52;98948.38;;;-6.18;100.00
69198;BME280;56311;50.298;8.514;2022-12-18T08:47:19;98947.03;;;-6.04;100.00
69198;BME280;56311;50.298;8.514;2022-12-18T08:49:45;98937.84;;;-6.00;100.00
69198;BME280;56311;50.298;8.514;2022-12-18T08:52:12;98938.00;;;-6.02;100.00
69198;BME280;56311;50.298;8.514;2022-12-18T08:54:39;98934.22;;;-5.99;100.00
69198;BME280;56311;50.298;8.514;2022-12-18T08:57:05;98927.78;;;-5.97;100.00
69198;BME280;56311;50.298;8.514;2022-12-18T08:59:33;98935.25;;;-5.92;100.00
69198;BME280;56311;50.298;8.514;2022-12-18T09:02:01;98930.66;;;-5.90;100.00
69198;BME280;56311;50.298;8.514;2022-12-18T09:04:28;98924.03;;;-5.94;100.00
69198;BME280;56311;50.298;8.514;2022-12-18T09:06:55;98923.22;;;-5.95;100.00
69198;BME280;56311;50.298;8.514;2022-12-18T09:09:21;98928.13;;;-6.00;100.00
69198;BME280;56311;50.298;8.514;2022-12-18T09:11:50;98926.63;;;-6.02;100.00
69198;BME280;56311;50.298;8.514;2022-12-18T09:14:17;98932.72;;;-6.02;100.00
69198;BME280;56311;50.298;8.514;2022-12-18T09:16:44;98922.88;;;-5.92;100.00
69198;BME280;56311;50.298;8.514;2022-12-18T09:19:12;98937.88;;;-5.92;100.00
69198;BME280;56311;50.298;8.514;2022-12-18T09:21:39;98943.97;;;-5.92;100.00
69198;BME280;56311;50.298;8.514;2022-12-18T09:24:14;98935.25;;;-5.92;100.00
69198;BME280;56311;50.298;8.514;2022-12-18T09:26:41;98935.41;;;-5.94;100.00
69198;BME280;56311;50.298;8.514;2022-12-18T09:29:12;98936.97;;;-5.83;100.00
69198;BME280;56311;50.298;8.514;2022-12-18T09:31:40;98934.69;;;-5.78;100.00
69198;BME280;56311;50.298;8.514;2022-12-18T09:34:07;98941.53;;;-5.67;100.00
69198;BME280;56311;50.298;8.514;2022-12-18T09:36:35;98936.84;;;-5.55;100.00
69198;BME280;56311;50.298;8.514;2022-12-18T09:39:02;98937.78;;;-5.38;100.00
69198;BME280;56311;50.298;8.514;2022-12-18T09:41:43;98949.91;;;-5.45;100.00
69198;BME280;56311;50.298;8.514;2022-12-18T09:44:15;98953.06;;;-5.41;100.00
69198;BME280;56311;50.298;8.514;2022-12-18T09:46:45;98940.56;;;-5.39;100.00
69198;BME280;56311;50.298;8.514;2022-12-18T09:49:18;98946.25;;;-5.26;100.00
69198;BME280;56311;50.298;8.514;2022-12-18T09:51:52;98955.09;;;-5.35;100.00
69198;BME280;56311;50.298;8.514;2022-12-18T09:54:23;98955.59;;;-5.32;100.00
69198;BME280;56311;50.298;8.514;2022-12-18T09:56:53;98953.13;;;-5.33;100.00
69198;BME280;56311;50.298;8.514;2022-12-18T09:59:23;98953.53;;;-5.20;100.00
69198;BME280;56311;50.298;8.514;2022-12-18T10:01:51;98956.13;;;-5.28;100.00
69198;BME280;56311;50.298;8.514;2022-12-18T10:04:18;98956.63;;;-5.24;100.00
69198;BME280;56311;50.298;8.514;2022-12-18T10:06:51;98963.06;;;-5.27;100.00
69198;BME280;56311;50.298;8.514;2022-12-18T10:09:26;98962.03;;;-5.34;100.00
69198;BME280;56311;50.298;8.514;2022-12-18T10:12:00;98961.13;;;-5.17;100.00
69198;BME280;56311;50.298;8.514;2022-12-18T10:14:36;98961.00;;;-5.15;100.00
69198;BME280;56311;50.298;8.514;2022-12-18T10:17:15;98962.03;;;-5.00;100.00
69198;BME280;56311;50.298;8.514;2022-12-18T10:19:48;98948.94;;;-5.09;100.00
69198;BME280;56311;50.298;8.514;2022-12-18T10:22:30;98945.22;;;-4.99;100.00
69198;BME280;56311;50.298;8.514;2022-12-18T10:25:14;98940.66;;;-5.23;100.00
69198;BME280;56311;50.298;8.514;2022-12-18T10:27:43;98938.72;;;-5.13;100.00
69198;BME280;56311;50.298;8.514;2022-12-18T10:30:13;98931.16;;;-5.07;100.00
69198;BME280;56311;50.298;8.514;2022-12-18T10:32:41;98933.31;;;-5.37;100.00
69198;BME280;56311;50.298;8.514;2022-12-18T10:35:17;98940.06;;;-5.35;100.00
69198;BME280;56311;50.298;8.514;2022-12-18T10:38:07;98938.22;;;-5.43;100.00
69198;BME280;56311;50.298;8.514;2022-12-18T10:40:50;98943.91;;;-5.29;100.00
69198;BME280;56311;50.298;8.514;2022-12-18T10:43:21;98950.16;;;-5.30;100.00
69198;BME280;56311;50.298;8.514;2022-12-18T10:46:03;98948.00;;;-5.35;100.00
69198;BME280;56311;50.298;8.514;2022-12-18T10:48:34;98947.13;;;-5.44;100.00
69198;BME280;56311;50.298;8.514;2022-12-18T10:51:03;98949.19;;;-5.29;100.00
69198;BME280;56311;50.298;8.514;2022-12-18T10:53:42;98951.72;;;-5.46;100.00
69198;BME280;56311;50.298;8.514;2022-12-18T10:56:11;98946.72;;;-5.57;100.00
69198;BME280;56311;50.298;8.514;2022-12-18T10:58:39;98959.38;;;-5.61;100.00
69198;BME280;56311;50.298;8.514;2022-12-18T11:01:09;98959.56;;;-5.80;100.00
69198;BME280;56311;50.298;8.514;2022-12-18T11:03:39;98961.34;;;-5.81;100.00
69198;BME280;56311;50.298;8.514;2022-12-18T11:06:10;98953.88;;;-5.67;100.00
69198;BME280;56311;50.298;8.514;2022-12-18T11:08:37;98952.31;;;-5.78;100.00
69198;BME280;56311;50.298;8.514;2022-12-18T11:11:19;98949.03;;;-5.80;100.00
69198;BME280;56311;50.298;8.514;2022-12-18T11:13:54;98934.09;;;-5.71;100.00
69198;BME280;56311;50.298;8.514;2022-12-18T11:16:25;98942.00;;;-5.71;100.00
69198;BME280;56311;50.298;8.514;2022-12-18T11:18:54;98935.88;;;-5.98;100.00
69198;BME280;56311;50.298;8.514;2022-12-18T11:21:22;98929.34;;;-6.12;100.00
69198;BME280;56311;50.298;8.514;2022-12-18T11:23:50;98926.88;;;-6.14;100.00
69198;BME280;56311;50.298;8.514;2022-12-18T11:26:19;98922.56;;;-6.33;100.00
69198;BME280;56311;50.298;8.514;2022-12-18T11:28:51;98922.50;;;-6.23;100.00
69198;BME280;56311;50.298;8.514;2022-12-18T11:31:24;98917.13;;;-6.49;100.00
69198;BME280;56311;50.298;8.514;2022-12-18T11:33:58;98916.75;;;-6.54;100.00
69198;BME280;56311;50.298;8.514;2022-12-18T11:36:48;98916.47;;;-6.51;100.00
69198;BME280;56311;50.298;8.514;2022-12-18T11:39:18;98909.56;;;-6.52;100.00
69198;BME280;56311;50.298;8.514;2022-12-18T11:41:53;98907.66;;;-6.60;100.00
69198;BME280;56311;50.298;8.514;2022-12-18T11:44:43;98914.88;;;-6.62;100.00
69198;BME280;56311;50.298;8.514;2022-12-18T11:47:13;98912.44;;;-6.74;100.00
69198;BME280;56311;50.298;8.514;2022-12-18T11:49:49;98908.34;;;-6.58;100.00
69198;BME280;56311;50.298;8.514;2022-12-18T11:52:18;98901.84;;;-6.64;100.00
69198;BME280;56311;50.298;8.514;2022-12-18T11:54:51;98907.50;;;-6.77;100.00
69198;BME280;56311;50.298;8.514;2022-12-18T11:57:30;98909.75;;;-6.64;100.00
69198;BME280;56311;50.298;8.514;2022-12-18T12:00:07;98898.88;;;-6.51;100.00
69198;BME280;56311;50.298;8.514;2022-12-18T12:03:00;98907.22;;;-6.37;100.00
69198;BME280;56311;50.298;8.514;2022-12-18T12:05:44;98911.81;;;-6.21;100.00
69198;BME280;56311;50.298;8.514;2022-12-18T12:08:18;98916.84;;;-6.28;100.00
69198;BME280;56311;50.298;8.514;2022-12-18T12:10:57;98918.88;;;-6.22;100.00
69198;BME280;56311;50.298;8.514;2022-12-18T12:13:40;98918.72;;;-6.20;100.00
69198;BME280;56311;50.298;8.514;2022-12-18T12:16:17;98922.88;;;-6.18;100.00
69198;BME280;56311;50.298;8.514;2022-12-18T12:18:54;98918.81;;;-6.30;100.00
69198;BME280;56311;50.298;8.514;2022-12-18T12:21:28;98924.84;;;-6.20;100.00
69198;BME280;56311;50.298;8.514;2022-12-18T12:24:03;98925.44;;;-6.08;100.00
69198;BME280;56311;50.298;8.514;2022-12-18T12:26:41;98920.81;;;-6.06;100.00
69198;BME280;56311;50.298;8.514;2022-12-18T12:29:26;98917.22;;;-6.05;100.00
69198;BME280;56311;50.298;8.514;2022-12-18T12:32:07;98917.53;;;-6.08;100.00
69198;BME280;56311;50.298;8.514;2022-12-18T12:34:44;98909.41;;;-6.33;100.00
69198;BME280;56311;50.298;8.514;2022-12-18T12:37:32;98896.16;;;-6.41;100.00
69198;BME280;56311;50.298;8.514;2022-12-18T12:40:04;98875.63;;;-6.37;100.00
69198;BME280;56311;50.298;8.514;2022-12-18T12:42:55;98871.47;;;-6.40;100.00
69198;BME280;56311;50.298;8.514;2022-12-18T12:45:47;98883.38;;;-6.54;100.00
69198;BME280;56311;50.298;8.514;2022-12-18T12:48:20;98882.25;;;-6.69;100.00
69198;BME280;56311;50.298;8.514;2022-12-18T12:50:52;98894.72;;;-6.72;100.00
69198;BME280;56311;50.298;8.514;2022-12-18T12:53:25;98896.44;;;-6.80;100.00
69198;BME280;56311;50.298;8.514;2022-12-18T12:55:53;98889.13;;;-6.86;100.00
69198;BME280;56311;50.298;8.514;2022-12-18T12:58:29;98902.28;;;-6.86;100.00
69198;BME280;56311;50.298;8.514;2022-12-18T13:01:11;98894.53;;;-6.88;100.00
69198;BME280;56311;50.298;8.514;2022-12-18T13:03:56;98894.84;;;-6.91;100.00